Time;durP1;ratioP1;P1;durP2;ratioP2;P2;SDS_P1;SDS_P2;PMS_P1;PMS_P2;Temp;Humidity;BMP_temperature;BMP_pressure;BME280_temperature;BME280_humidity;BME280_pressure;Samples;Min_cycle;Max_cycle;Signal;HPM_P1;HPM_P2
2023/05/14 00:03:15;;;;;;;8.03;6.27;;;;;;;9.33;100.00;96865.34;10452152;28;20650;-67
2023/05/14 00:08:16;;;;;;;6.87;6.17;;;;;;;9.68;100.00;96856.75;10451621;28;20208;-67
2023/05/14 00:13:16;;;;;;;8.67;6.33;;;;;;;9.74;100.00;96850.06;10456838;28;20203;-66
2023/05/14 00:18:17;;;;;;;7.30;5.90;;;;;;;9.64;100.00;96845.72;10459465;28;20203;-67
2023/05/14 00:23:17;;;;;;;5.70;5.10;;;;;;;9.53;100.00;96838.09;10459224;28;20265;-67
2023/05/14 00:28:17;;;;;;;7.57;6.07;;;;;;;9.24;100.00;96830.41;10459295;28;20250;-66
2023/05/14 00:33:18;;;;;;;10.40;7.30;;;;;;;8.83;100.00;96837.72;10458751;28;20199;-66
2023/05/14 00:38:18;;;;;;;9.10;6.97;;;;;;;8.74;100.00;96834.16;10457544;28;20216;-67
2023/05/14 00:43:20;;;;;;;8.23;7.30;;;;;;;8.36;100.00;96830.66;10457027;28;20223;-67
2023/05/14 00:48:20;;;;;;;13.03;9.20;;;;;;;8.07;100.00;96834.13;10458996;28;20344;-67
2023/05/14 00:53:21;;;;;;;10.83;8.13;;;;;;;7.81;100.00;96841.63;10458237;28;20219;-67
2023/05/14 00:58:22;;;;;;;10.00;7.90;;;;;;;7.60;100.00;96841.78;10456651;28;20698;-67
2023/05/14 01:03:22;;;;;;;10.87;9.13;;;;;;;7.15;100.00;96845.59;10457612;28;20231;-66
2023/05/14 01:08:44;;;;;;;12.63;9.17;;;;;;;7.09;100.00;96852.19;10457474;28;20273;-67
2023/05/14 01:14:05;;;;;;;10.13;8.60;;;;;;;7.20;100.00;96853.03;10456103;28;20199;-66
2023/05/14 01:19:09;;;;;;;10.13;8.47;;;;;;;7.25;100.00;96851.69;10455757;28;20207;-66
2023/05/14 01:24:09;;;;;;;9.00;7.43;;;;;;;7.19;100.00;96843.59;10454258;28;20265;-65
2023/05/14 01:29:17;;;;;;;12.70;7.87;;;;;;;7.13;100.00;96843.13;10456982;28;20724;-66
2023/05/14 01:34:20;;;;;;;9.87;7.40;;;;;;;7.20;100.00;96843.44;10438741;28;20207;-66
2023/05/14 01:39:22;;;;;;;8.70;7.30;;;;;;;7.27;100.00;96849.78;10455241;28;20188;-65
2023/05/14 01:44:22;;;;;;;8.40;7.23;;;;;;;7.11;100.00;96831.22;10454712;28;20605;-66
2023/05/14 01:49:23;;;;;;;9.33;7.87;;;;;;;7.06;100.00;96839.44;10454455;28;20196;-66
2023/05/14 01:54:23;;;;;;;10.03;6.70;;;;;;;7.04;100.00;96830.91;10456178;28;20575;-66
2023/05/14 01:59:23;;;;;;;9.73;6.80;;;;;;;7.05;100.00;96837.75;10454577;28;20207;-66
2023/05/14 02:04:24;;;;;;;8.37;6.67;;;;;;;7.08;100.00;96829.69;10454126;28;20227;-65
2023/05/14 02:09:24;;;;;;;10.97;6.67;;;;;;;6.85;100.00;96834.25;10454110;28;20200;-66
2023/05/14 02:14:24;;;;;;;10.13;6.60;;;;;;;6.67;100.00;96828.81;10455056;28;20207;-65
2023/05/14 02:19:25;;;;;;;9.40;7.13;;;;;;;6.55;100.00;96827.25;10454831;28;20245;-65
2023/05/14 02:24:26;;;;;;;8.37;6.80;;;;;;;6.52;100.00;96828.31;10454568;28;20223;-65
2023/05/14 02:29:26;;;;;;;10.97;7.10;;;;;;;6.43;100.00;96826.50;10454640;28;20192;-65
2023/05/14 02:34:28;;;;;;;8.53;7.27;;;;;;;6.39;100.00;96828.53;10453771;28;20587;-65
2023/05/14 02:39:28;;;;;;;10.33;7.07;;;;;;;6.39;100.00;96832.91;10454325;28;20266;-65
2023/05/14 02:44:30;;;;;;;8.43;7.50;;;;;;;6.42;100.00;96832.66;10453643;28;20220;-66
2023/05/14 02:49:30;;;;;;;10.67;6.70;;;;;;;6.48;100.00;96832.16;10452623;28;20677;-66
2023/05/14 02:54:31;;;;;;;9.43;7.70;;;;;;;6.54;100.00;96820.38;10453706;28;20200;-65
2023/05/14 02:59:31;;;;;;;8.27;6.50;;;;;;;6.60;100.00;96820.72;10453474;28;20266;-66
2023/05/14 03:04:32;;;;;;;9.30;6.60;;;;;;;6.64;100.00;96808.25;10451607;28;20247;-66
2023/05/14 03:09:32;;;;;;;10.97;7.13;;;;;;;6.72;100.00;96808.44;10451291;28;20192;-66
2023/05/14 03:14:32;;;;;;;10.83;6.80;;;;;;;6.76;100.00;96802.00;10453130;28;20737;-65
2023/05/14 03:19:33;;;;;;;8.97;6.60;;;;;;;6.88;100.00;96799.31;10451432;28;20684;-65
2023/05/14 03:24:33;;;;;;;9.60;7.80;;;;;;;6.85;100.00;96795.19;10451863;28;20262;-66
2023/05/14 03:29:34;;;;;;;8.57;7.37;;;;;;;6.83;100.00;96788.47;10452242;28;20187;-66
2023/05/14 03:34:34;;;;;;;11.17;7.10;;;;;;;6.91;100.00;96780.84;10451610;28;20242;-66
2023/05/14 03:39:35;;;;;;;8.77;7.30;;;;;;;6.92;100.00;96779.84;10452185;28;20631;-65
2023/05/14 03:44:38;;;;;;;9.20;7.13;;;;;;;6.93;100.00;96782.34;10450478;28;20806;-65
2023/05/14 03:49:38;;;;;;;8.43;7.30;;;;;;;6.97;100.00;96782.91;10459569;28;20263;-65
2023/05/14 03:54:40;;;;;;;11.10;7.43;;;;;;;6.91;100.00;96786.03;10459386;28;20219;-66
2023/05/14 03:59:41;;;;;;;12.27;7.57;;;;;;;6.99;100.00;96782.78;10460257;28;20184;-66
2023/05/14 04:04:41;;;;;;;9.43;6.67;;;;;;;6.97;100.00;96778.53;10459425;28;20310;-65
2023/05/14 04:09:41;;;;;;;9.43;6.47;;;;;;;7.09;100.00;96779.25;10458802;28;20187;-64
2023/05/14 04:14:42;;;;;;;11.73;7.73;;;;;;;7.28;100.00;96767.22;10460410;28;20227;-65
2023/05/14 04:19:42;;;;;;;13.37;7.10;;;;;;;7.37;100.00;96755.97;10458666;28;20211;-65
2023/05/14 04:24:42;;;;;;;8.60;7.37;;;;;;;7.43;100.00;96759.84;10459578;28;20756;-66
2023/05/14 04:29:43;;;;;;;15.07;7.47;;;;;;;7.53;100.00;96749.41;10459848;28;20192;-65
2023/05/14 04:34:43;;;;;;;11.33;7.23;;;;;;;7.91;100.00;96750.38;10458877;28;20206;-66
2023/05/14 04:39:44;;;;;;;10.00;7.87;;;;;;;8.29;100.00;96751.28;10459372;28;20188;-65
2023/05/14 04:44:44;;;;;;;12.70;7.20;;;;;;;8.60;100.00;96743.25;10458642;28;20686;-65
2023/05/14 04:49:44;;;;;;;7.70;6.17;;;;;;;8.82;100.00;96739.41;10458821;28;20604;-67
2023/05/14 04:54:45;;;;;;;9.30;6.03;;;;;;;9.17;100.00;96719.56;10458307;28;20571;-66
2023/05/14 04:59:45;;;;;;;7.77;6.17;;;;;;;9.36;100.00;96729.09;10458142;28;20713;-66
2023/05/14 05:04:46;;;;;;;8.30;6.07;;;;;;;9.80;100.00;96716.06;10458219;28;20316;-66
2023/05/14 05:09:46;;;;;;;15.43;6.20;;;;;;;9.99;100.00;96710.66;10458131;28;20199;-66
2023/05/14 05:14:46;;;;;;;8.77;5.87;;;;;;;9.86;100.00;96718.06;10458179;28;20211;-67
2023/05/14 05:19:47;;;;;;;6.33;5.43;;;;;;;10.21;100.00;96713.72;10457599;28;20219;-66
2023/05/14 05:24:47;;;;;;;6.10;5.43;;;;;;;10.27;100.00;96705.25;10457711;28;20230;-68
2023/05/14 05:29:47;;;;;;;7.78;5.95;;;;;;;10.46;100.00;96700.81;10457447;28;20196;-68
2023/05/14 05:34:48;;;;;;;8.50;5.13;;;;;;;10.71;100.00;96697.31;10456821;28;20243;-67
2023/05/14 05:39:48;;;;;;;5.03;4.63;;;;;;;11.01;100.00;96686.44;10456681;28;20195;-68
2023/05/14 05:44:49;;;;;;;5.40;4.90;;;;;;;11.15;100.00;96671.88;10477713;23;20235;-67
2023/05/14 05:49:49;;;;;;;5.53;4.75;;;;;;;11.83;100.00;96660.28;10452434;28;20203;-66
2023/05/14 05:54:49;;;;;;;5.90;5.30;;;;;;;12.21;100.00;96655.34;10455835;28;20227;-66
2023/05/14 05:59:50;;;;;;;6.10;4.78;;;;;;;12.60;97.34;96643.22;10455880;28;20261;-66
2023/05/14 06:04:51;;;;;;;4.78;4.30;;;;;;;13.18;89.65;96610.38;10455104;28;20224;-67
2023/05/14 06:09:52;;;;;;;8.45;4.47;;;;;;;13.27;89.84;96634.00;10454857;28;20187;-67
2023/05/14 06:14:54;;;;;;;4.57;3.63;;;;;;;14.86;79.72;96568.00;10454896;28;20216;-67
2023/05/14 06:19:54;;;;;;;7.53;3.42;;;;;;;15.31;72.99;96527.22;10454600;28;20219;-67
2023/05/14 06:24:54;;;;;;;4.30;3.28;;;;;;;16.24;68.17;96489.16;10454633;28;20324;-67
2023/05/14 06:29:55;;;;;;;6.05;3.65;;;;;;;15.28;68.87;96514.41;10454316;28;20195;-67
2023/05/14 06:34:55;;;;;;;4.32;2.97;;;;;;;15.99;66.52;96502.88;10454624;28;20204;-67
2023/05/14 06:39:56;;;;;;;7.45;2.90;;;;;;;16.29;65.86;96507.06;10453762;28;20234;-67
2023/05/14 06:44:56;;;;;;;4.25;3.60;;;;;;;15.41;67.18;96511.03;10453561;28;20232;-67
2023/05/14 06:49:57;;;;;;;6.68;3.38;;;;;;;15.60;67.13;96514.00;10453582;28;20191;-67
2023/05/14 06:54:57;;;;;;;5.78;3.35;;;;;;;15.87;68.10;96541.44;10453485;28;20223;-67
2023/05/14 06:59:58;;;;;;;5.05;3.53;;;;;;;16.91;65.31;96515.84;10453399;28;20544;-67
2023/05/14 07:04:58;;;;;;;3.47;3.15;;;;;;;16.85;61.60;96461.03;10452706;28;20712;-67
2023/05/14 07:09:59;;;;;;;3.65;3.00;;;;;;;16.10;65.03;96511.28;10453164;28;20559;-67
2023/05/14 07:14:59;;;;;;;4.35;3.20;;;;;;;16.69;63.83;96504.56;10452635;28;20628;-67
2023/05/14 07:19:59;;;;;;;6.32;3.33;;;;;;;16.88;62.36;96479.19;10452068;28;20199;-67
2023/05/14 07:25:00;;;;;;;4.57;3.58;;;;;;;17.22;61.86;96482.66;10423033;28;20223;-67
2023/05/14 07:30:00;;;;;;;6.40;3.78;;;;;;;18.12;59.35;96461.69;10410923;28;20223;-68
2023/05/14 07:35:00;;;;;;;5.57;3.83;;;;;;;17.42;61.51;96480.00;10410890;28;20286;-67
2023/05/14 07:40:01;;;;;;;8.18;4.28;;;;;;;16.36;65.00;96526.44;10410833;28;20238;-67
2023/05/14 07:45:01;;;;;;;6.35;3.90;;;;;;;16.90;62.82;96493.03;10410560;28;20236;-67
2023/05/14 07:50:02;;;;;;;3.72;3.25;;;;;;;16.13;62.47;96492.38;10410894;28;20607;-67
2023/05/14 07:55:03;;;;;;;10.07;3.40;;;;;;;15.68;63.21;96487.44;10410647;28;20207;-67
2023/05/14 08:00:06;;;;;;;4.25;3.83;;;;;;;16.32;64.15;96512.78;10410601;28;20192;-67
2023/05/14 08:05:12;;;;;;;4.80;3.40;;;;;;;17.18;58.56;96426.69;10410311;28;20234;-67
2023/05/14 08:10:13;;;;;;;4.00;3.60;;;;;;;16.66;61.24;96479.34;10410400;28;20539;-67
2023/05/14 08:15:13;;;;;;;4.35;3.60;;;;;;;16.81;61.26;96478.31;10410236;28;20659;-67
2023/05/14 08:20:13;;;;;;;4.07;3.67;;;;;;;16.53;61.48;96474.00;10410233;28;20553;-67
2023/05/14 08:25:14;;;;;;;4.65;4.18;;;;;;;15.53;63.89;96498.13;10410106;28;20239;-67
2023/05/14 08:30:14;;;;;;;5.90;3.83;;;;;;;16.48;62.49;96489.66;10409893;28;20193;-68
2023/05/14 08:35:16;;;;;;;9.25;5.75;;;;;;;17.35;59.18;96456.19;10415896;28;20205;-67
2023/05/14 08:40:17;;;;;;;3.90;2.95;;;;;;;16.81;60.41;96459.81;10418265;28;20193;-68
2023/05/14 08:45:19;;;;;;;4.35;3.30;;;;;;;17.35;58.61;96431.50;10416975;28;20754;-67
2023/05/14 08:50:19;;;;;;;3.05;2.08;;;;;;;17.03;56.82;96381.06;10417082;28;20197;-67
2023/05/14 08:55:20;;;;;;;3.00;2.70;;;;;;;16.47;58.02;96414.78;10416757;28;20635;-67
2023/05/14 09:00:21;;;;;;;3.42;2.45;;;;;;;16.84;57.69;96406.50;10399004;28;20255;-67
2023/05/14 09:05:22;;;;;;;3.58;2.55;;;;;;;17.05;56.43;96389.63;10416206;28;20221;-67
2023/05/14 09:10:22;;;;;;;5.32;2.92;;;;;;;16.72;59.55;96445.94;10416187;28;20192;-67
2023/05/14 09:15:24;;;;;;;4.35;2.55;;;;;;;17.07;57.13;96396.31;10415909;28;20263;-67
2023/05/14 09:20:24;;;;;;;3.08;2.78;;;;;;;17.93;58.00;96433.44;10398095;28;20200;-67
2023/05/14 09:25:26;;;;;;;2.42;2.22;;;;;;;17.08;55.95;96363.53;10415571;28;20220;-67
2023/05/14 09:30:26;;;;;;;2.90;2.40;;;;;;;16.53;58.08;96398.13;10415538;28;20275;-67
2023/05/14 09:35:26;;;;;;;2.60;2.40;;;;;;;17.23;55.53;96367.81;10415276;28;20650;-67
2023/05/14 09:40:27;;;;;;;4.00;3.00;;;;;;;16.70;59.83;96445.34;10415210;28;20194;-67
2023/05/14 09:45:28;;;;;;;5.05;2.15;;;;;;;17.93;55.27;96365.34;10413771;28;20335;-66
2023/05/14 09:50:28;;;;;;;2.22;1.95;;;;;;;16.67;55.45;96335.47;10414859;28;20573;-68
2023/05/14 09:55:30;;;;;;;3.85;2.30;;;;;;;15.94;58.39;96367.94;10414837;28;20289;-67
2023/05/14 10:00:33;;;;;;;2.50;2.30;;;;;;;16.21;58.95;96389.13;10414374;28;20254;-67
2023/05/14 10:05:35;;;;;;;3.28;2.60;;;;;;;15.96;58.53;96383.59;10414156;28;20228;-67
2023/05/14 10:10:36;;;;;;;3.55;2.67;;;;;;;16.23;58.72;96387.09;10412478;28;20188;-67
2023/05/14 10:15:40;;;;;;;3.38;3.08;;;;;;;15.97;61.16;96414.25;10413953;28;20201;-67
2023/05/14 10:20:41;;;;;;;2.92;2.67;;;;;;;16.13;58.80;96376.09;10413432;28;20239;-66
2023/05/14 10:25:41;;;;;;;4.85;2.83;;;;;;;17.01;56.09;96341.56;10395907;28;20274;-67
2023/05/14 10:30:48;;;;;;;4.53;2.85;;;;;;;16.38;59.51;96385.09;10395565;28;20197;-67
2023/05/14 10:36:02;;;;;;;4.03;2.67;;;;;;;17.61;59.19;96410.28;10413122;28;20209;-67
2023/05/14 10:41:04;;;;;;;4.43;3.30;;;;;;;16.30;58.41;96361.50;10395604;28;20250;-68
2023/05/14 10:46:06;;;;;;;3.83;2.95;;;;;;;16.22;59.30;96359.84;10412576;28;20244;-68
2023/05/14 10:51:08;;;;;;;3.45;2.85;;;;;;;16.39;59.47;96368.22;10444223;28;20269;-67
2023/05/14 10:56:10;;;;;;;4.10;2.88;;;;;;;15.60;59.26;96340.53;10417840;28;20204;-67
2023/05/14 11:01:11;;;;;;;4.30;2.70;;;;;;;16.02;60.96;96388.06;10412402;28;20239;-67
2023/05/14 11:06:14;;;;;;;3.38;2.95;;;;;;;16.63;59.84;96371.31;10412125;28;20745;-67
2023/05/14 11:11:14;;;;;;;3.28;2.90;;;;;;;17.87;57.71;96350.28;10411895;28;20201;-68
2023/05/14 11:16:17;;;;;;;3.25;2.95;;;;;;;18.49;56.21;96339.09;10434940;28;20223;-68
2023/05/14 11:21:17;;;;;;;3.42;3.05;;;;;;;18.68;55.17;96314.25;10452443;28;20195;-68
2023/05/14 11:26:18;;;;;;;3.90;3.00;;;;;;;18.01;56.60;96319.25;10452041;28;20276;-68
2023/05/14 11:31:18;;;;;;;3.72;2.92;;;;;;;16.57;57.72;96308.66;10434654;28;20230;-67
2023/05/14 11:36:19;;;;;;;4.63;3.00;;;;;;;16.73;57.89;96307.41;10434055;28;20212;-66
2023/05/14 11:41:21;;;;;;;3.47;3.08;;;;;;;17.59;56.80;96310.84;10451965;28;20195;-68
2023/05/14 11:46:22;;;;;;;3.15;2.83;;;;;;;18.02;55.39;96282.94;10441146;23;20857;-65
2023/05/14 11:51:23;;;;;;;4.30;3.10;;;;;;;19.25;54.54;96292.88;10408044;28;20319;-63
2023/05/14 11:56:23;;;;;;;2.92;2.72;;;;;;;18.81;53.08;96246.97;10410368;28;20749;-63
2023/05/14 12:01:24;;;;;;;2.75;2.55;;;;;;;18.59;53.66;96248.41;10410304;28;20205;-63
2023/05/14 12:06:30;;;;;;;3.72;2.50;;;;;;;19.33;55.06;96296.28;10410262;28;20242;-65
2023/05/14 12:11:31;;;;;;;4.82;2.60;;;;;;;20.89;50.13;96228.91;10418241;28;20261;-64
2023/05/14 12:16:31;;;;;;;7.50;2.70;;;;;;;21.90;46.76;96171.66;10417753;28;20339;-64
2023/05/14 12:21:33;;;;;;;2.90;2.20;;;;;;;22.55;46.59;96188.13;10417741;28;20195;-64
2023/05/14 12:26:33;;;;;;;2.85;2.05;;;;;;;21.47;46.05;96143.69;10417470;28;20224;-64
2023/05/14 12:31:37;;;;;;;2.35;1.95;;;;;;;19.69;49.17;96164.38;10417426;28;20193;-63
2023/05/14 12:36:37;;;;;;;2.30;2.10;;;;;;;17.79;53.74;96213.53;10417086;28;20209;-65
2023/05/14 12:41:38;;;;;;;3.80;2.70;;;;;;;17.11;56.15;96240.59;10416990;28;20723;-63
2023/05/14 12:46:38;;;;;;;4.40;2.63;;;;;;;17.45;58.65;96297.66;10416548;28;20706;-63
2023/05/14 12:51:38;;;;;;;3.13;2.70;;;;;;;17.98;57.89;96293.16;10416354;28;20659;-63
2023/05/14 12:56:39;;;;;;;3.30;2.28;;;;;;;18.25;54.24;96218.72;10416441;28;20200;-63
2023/05/14 13:01:40;;;;;;;2.90;2.30;;;;;;;18.23;55.42;96242.81;10416286;28;20246;-63
2023/05/14 13:06:40;;;;;;;4.05;2.60;;;;;;;17.80;55.76;96232.91;10416261;28;20220;-65
2023/05/14 13:11:41;;;;;;;2.58;2.38;;;;;;;17.70;56.22;96246.59;10416028;28;20188;-65
2023/05/14 13:16:42;;;;;;;2.42;2.20;;;;;;;17.13;57.83;96261.53;10415566;28;20247;-65
2023/05/14 13:21:42;;;;;;;4.15;2.30;;;;;;;17.19;56.64;96235.03;10414118;28;20197;-64
2023/05/14 13:26:43;;;;;;;6.13;2.38;;;;;;;17.13;56.80;96237.72;10415169;28;20243;-64
2023/05/14 13:31:44;;;;;;;5.88;4.80;;;;;;;16.65;58.13;96260.81;10415008;28;20201;-64
2023/05/14 13:36:45;;;;;;;3.50;2.72;;;;;;;15.87;59.94;96278.09;10414806;28;20581;-63
2023/05/14 13:41:46;;;;;;;3.00;2.35;;;;;;;15.79;60.09;96269.53;10414569;28;20735;-65
2023/05/14 13:46:46;;;;;;;3.08;2.47;;;;;;;16.40;61.70;96314.34;10414334;28;20236;-63
2023/05/14 13:51:47;;;;;;;5.47;2.60;;;;;;;16.29;59.54;96263.88;10414316;28;20192;-63
2023/05/14 13:56:47;;;;;;;3.13;2.58;;;;;;;17.56;59.38;96284.78;10414262;28;20235;-63
2023/05/14 14:01:48;;;;;;;3.95;2.67;;;;;;;17.78;55.39;96203.97;10413967;28;20203;-64
2023/05/14 14:06:49;;;;;;;4.43;2.80;;;;;;;18.32;57.78;96272.53;10413615;28;20216;-64
2023/05/14 14:11:50;;;;;;;3.22;2.65;;;;;;;19.23;55.25;96238.34;10413659;28;20200;-64
2023/05/14 14:16:50;;;;;;;2.97;2.40;;;;;;;19.64;53.35;96217.41;10413480;28;20282;-66
2023/05/14 14:21:50;;;;;;;3.63;2.88;;;;;;;17.53;56.42;96226.94;10413272;28;20207;-64
2023/05/14 14:26:51;;;;;;;3.47;2.60;;;;;;;16.41;60.59;96273.63;10413040;28;20224;-63
2023/05/14 14:31:51;;;;;;;3.40;2.88;;;;;;;17.31;59.85;96271.47;10412594;28;20283;-63
2023/05/14 14:36:51;;;;;;;3.20;2.80;;;;;;;17.90;56.42;96214.72;10412468;28;20216;-64
2023/05/14 14:41:52;;;;;;;3.70;2.72;;;;;;;17.71;61.33;96292.47;10412558;28;20288;-64
2023/05/14 14:46:52;;;;;;;3.28;2.90;;;;;;;17.91;59.42;96268.53;10411476;28;20245;-64
2023/05/14 14:51:52;;;;;;;3.42;3.03;;;;;;;17.45;57.71;96210.28;10412137;28;20199;-63
2023/05/14 14:56:53;;;;;;;4.72;2.92;;;;;;;16.78;60.10;96246.75;10411933;28;20212;-63
2023/05/14 15:01:54;;;;;;;2.97;2.70;;;;;;;15.72;62.28;96263.41;10411752;28;20204;-64
2023/05/14 15:06:54;;;;;;;2.78;1.70;;;;;;;15.82;57.35;96158.22;10411665;28;20281;-63
2023/05/14 15:11:54;;;;;;;3.33;1.73;;;;;;;15.18;57.83;96162.16;10411383;28;20276;-63
2023/05/14 15:16:55;;;;;;;6.85;2.10;;;;;;;15.02;58.45;96179.94;10411259;28;20204;-63
2023/05/14 15:21:55;;;;;;;3.22;2.03;;;;;;;15.31;59.79;96210.50;10410834;28;20753;-63
2023/05/14 15:26:55;;;;;;;2.55;2.10;;;;;;;15.44;62.27;96257.22;10410987;28;20711;-64
2023/05/14 15:31:56;;;;;;;2.53;2.30;;;;;;;16.17;60.81;96248.66;10410726;28;20780;-65
2023/05/14 15:36:56;;;;;;;2.08;1.92;;;;;;;16.62;59.45;96220.75;10410681;28;20703;-64
2023/05/14 15:41:57;;;;;;;5.70;2.58;;;;;;;16.38;61.86;96262.66;10410148;28;20220;-63
2023/05/14 15:46:57;;;;;;;3.88;2.75;;;;;;;16.08;62.31;96249.03;10410288;28;20239;-63
2023/05/14 15:51:59;;;;;;;3.95;3.08;;;;;;;15.67;63.15;96254.25;10399704;28;21184;-64
2023/05/14 15:57:00;;;;;;;3.35;3.00;;;;;;;16.17;64.17;96283.00;10394653;28;20216;-64
2023/05/14 16:02:00;;;;;;;3.03;2.72;;;;;;;16.05;62.43;96237.88;10375452;28;20201;-65
2023/05/14 16:07:05;;;;;;;3.00;2.70;;;;;;;16.47;62.17;96229.72;10366842;28;20721;-63
2023/05/14 16:12:06;;;;;;;5.18;3.00;;;;;;;16.63;62.69;96249.63;10366606;28;20224;-64
2023/05/14 16:17:07;;;;;;;4.72;2.83;;;;;;;16.82;64.13;96285.00;10366730;28;20263;-64
2023/05/14 16:22:07;;;;;;;3.30;2.67;;;;;;;15.97;63.18;96246.00;10368820;28;20197;-65
2023/05/14 16:27:07;;;;;;;5.63;2.88;;;;;;;15.97;64.88;96271.59;10369071;28;20217;-63
2023/05/14 16:32:08;;;;;;;3.17;2.90;;;;;;;16.09;64.12;96263.88;10369342;28;20799;-64
2023/05/14 16:37:08;;;;;;;3.45;2.95;;;;;;;16.32;61.95;96227.28;10368780;28;20709;-64
2023/05/14 16:42:08;;;;;;;2.92;2.50;;;;;;;15.95;62.52;96237.44;10368929;28;21373;-64
2023/05/14 16:47:09;;;;;;;5.15;2.70;;;;;;;15.34;66.42;96286.66;10368384;28;20719;-64
2023/05/14 16:52:09;;;;;;;4.28;2.85;;;;;;;15.98;65.68;96279.31;10376752;28;20191;-63
2023/05/14 16:57:10;;;;;;;3.28;2.97;;;;;;;16.00;64.16;96242.97;10411912;28;20725;-63
2023/05/14 17:02:10;;;;;;;3.90;2.75;;;;;;;16.47;64.75;96273.84;10416399;28;20686;-63
2023/05/14 17:07:10;;;;;;;9.30;3.28;;;;;;;16.68;64.58;96249.03;10416098;28;20254;-64
2023/05/14 17:12:12;;;;;;;4.55;3.08;;;;;;;15.47;66.28;96248.91;10415849;28;20208;-63
2023/05/14 17:17:12;;;;;;;3.55;3.25;;;;;;;15.45;69.27;96295.81;10416246;28;20216;-63
2023/05/14 17:22:13;;;;;;;3.78;3.30;;;;;;;14.88;69.72;96294.31;10415594;28;20696;-64
2023/05/14 17:27:13;;;;;;;4.82;3.80;;;;;;;14.91;70.08;96307.13;10414502;28;20208;-64
2023/05/14 17:32:14;;;;;;;4.30;3.90;;;;;;;14.43;71.05;96319.13;10414121;28;20199;-63
2023/05/14 17:37:14;;;;;;;4.70;3.63;;;;;;;14.62;72.46;96325.59;10413856;28;20220;-65
2023/05/14 17:42:15;;;;;;;3.85;2.90;;;;;;;14.24;70.33;96286.34;10413289;28;20290;-63
2023/05/14 17:47:19;;;;;;;3.30;2.78;;;;;;;14.30;70.00;96271.56;10424620;23;20243;-66
2023/05/14 17:52:19;;;;;;;4.63;2.60;;;;;;;13.89;71.21;96288.88;10412492;28;20242;-66
2023/05/14 17:57:20;;;;;;;3.90;3.42;;;;;;;13.89;72.85;96311.75;10414285;28;20216;-66
2023/05/14 18:02:20;;;;;;;4.88;2.70;;;;;;;13.89;72.52;96286.22;10414092;28;20254;-66
2023/05/14 18:07:21;;;;;;;3.25;2.95;;;;;;;13.80;73.50;96297.06;10412884;28;20757;-66
2023/05/14 18:12:21;;;;;;;5.18;2.45;;;;;;;13.62;73.86;96295.66;10413390;28;20191;-67
2023/05/14 18:17:22;;;;;;;3.33;2.58;;;;;;;13.39;74.56;96285.28;10413002;28;20220;-66
2023/05/14 18:22:22;;;;;;;2.70;1.73;;;;;;;12.92;74.27;96284.66;10412865;28;20560;-67
2023/05/14 18:27:22;;;;;;;2.28;1.90;;;;;;;12.56;77.33;96326.63;10412548;28;20213;-66
2023/05/14 18:32:23;;;;;;;2.00;1.90;;;;;;;12.39;79.97;96334.63;10412334;28;20214;-66
2023/05/14 18:37:23;;;;;;;2.10;2.00;;;;;;;12.28;81.61;96332.41;10412468;28;20630;-67
2023/05/14 18:42:24;;;;;;;2.22;2.10;;;;;;;12.25;82.94;96330.13;10411619;28;20200;-66
2023/05/14 18:47:24;;;;;;;3.70;2.50;;;;;;;12.01;86.18;96342.47;10411943;28;20247;-66
2023/05/14 18:52:25;;;;;;;3.63;2.45;;;;;;;11.70;89.96;96343.28;10411677;28;20242;-66
2023/05/14 18:57:27;;;;;;;3.20;2.90;;;;;;;11.53;93.99;96352.22;10411451;28;20564;-66
2023/05/14 19:02:28;;;;;;;4.35;2.90;;;;;;;11.38;97.47;96344.28;10411462;28;20192;-66
2023/05/14 19:07:29;;;;;;;4.85;3.28;;;;;;;11.40;99.85;96339.66;10410957;28;20722;-66
2023/05/14 19:12:30;;;;;;;4.57;3.33;;;;;;;11.29;100.00;96338.22;10411240;28;20200;-66
2023/05/14 19:17:31;;;;;;;4.22;3.45;;;;;;;11.23;100.00;96344.16;10410891;28;20247;-66
2023/05/14 19:22:31;;;;;;;3.70;3.33;;;;;;;11.06;100.00;96346.81;10410895;28;20193;-66
2023/05/14 19:27:32;;;;;;;6.78;4.20;;;;;;;11.05;100.00;96341.75;10411197;28;20657;-67
2023/05/14 19:32:32;;;;;;;5.13;4.17;;;;;;;10.97;100.00;96347.84;10410684;28;20223;-67
2023/05/14 19:37:32;;;;;;;4.83;4.10;;;;;;;10.86;100.00;96350.81;10410760;28;20228;-66
2023/05/14 19:42:33;;;;;;;4.30;3.90;;;;;;;10.74;100.00;96345.09;10410110;28;20204;-66
2023/05/14 19:47:33;;;;;;;3.63;3.20;;;;;;;10.70;100.00;96330.69;10410287;28;20228;-66
2023/05/14 19:52:34;;;;;;;3.10;2.80;;;;;;;10.62;100.00;96328.91;10410345;28;20188;-67
2023/05/14 19:57:34;;;;;;;3.47;2.67;;;;;;;10.57;100.00;96325.16;10410819;28;20216;-68
2023/05/14 20:02:34;;;;;;;4.23;2.50;;;;;;;10.43;100.00;96317.00;10410481;28;20684;-68
2023/05/14 20:07:35;;;;;;;2.50;2.30;;;;;;;10.42;100.00;96319.78;10410456;28;20239;-67
2023/05/14 20:12:36;;;;;;;3.03;2.23;;;;;;;10.29;100.00;96307.97;10410288;28;20200;-67
2023/05/14 20:17:39;;;;;;;2.40;2.20;;;;;;;10.23;100.00;96305.19;10409968;28;20232;-67
2023/05/14 20:22:41;;;;;;;3.07;2.03;;;;;;;10.17;100.00;96304.06;10410166;28;20320;-67
2023/05/14 20:27:41;;;;;;;3.03;2.10;;;;;;;10.06;100.00;96297.34;10410750;28;20691;-68
2023/05/14 20:32:42;;;;;;;2.43;2.00;;;;;;;10.11;100.00;96294.25;10417707;28;20197;-67
2023/05/14 20:37:42;;;;;;;2.30;2.10;;;;;;;10.17;100.00;96294.41;10417716;28;20212;-67
2023/05/14 20:42:43;;;;;;;2.03;1.83;;;;;;;9.97;100.00;96287.88;10417295;28;20208;-67
2023/05/14 20:47:43;;;;;;;2.00;1.90;;;;;;;10.07;100.00;96283.25;10416946;28;20255;-67
2023/05/14 20:52:44;;;;;;;2.07;1.87;;;;;;;9.99;100.00;96278.84;10417057;28;20196;-67
2023/05/14 20:57:44;;;;;;;3.43;2.30;;;;;;;9.91;100.00;96278.84;10416880;28;20213;-67
2023/05/14 21:02:45;;;;;;;3.53;2.30;;;;;;;10.00;100.00;96272.66;10416563;28;20216;-67
2023/05/14 21:07:45;;;;;;;2.87;2.03;;;;;;;9.96;100.00;96266.09;10416239;28;20643;-67
2023/05/14 21:12:45;;;;;;;2.53;2.10;;;;;;;10.04;100.00;96264.47;10416381;28;20246;-67
2023/05/14 21:17:46;;;;;;;1.87;1.77;;;;;;;10.02;100.00;96266.44;10416102;28;20311;-68
2023/05/14 21:22:46;;;;;;;2.50;1.87;;;;;;;9.99;100.00;96264.97;10416238;28;20212;-67
2023/05/14 21:27:46;;;;;;;1.90;1.80;;;;;;;10.11;100.00;96257.59;10415944;28;20217;-67
2023/05/14 21:32:47;;;;;;;3.30;2.10;;;;;;;10.12;100.00;96254.81;10416320;28;20288;-67
2023/05/14 21:37:47;;;;;;;2.42;1.98;;;;;;;10.02;100.00;96254.16;10433123;28;20217;-67
2023/05/14 21:42:48;;;;;;;2.57;2.03;;;;;;;9.90;100.00;96251.03;10437941;28;20601;-67
2023/05/14 21:47:49;;;;;;;3.05;2.20;;;;;;;9.57;100.00;96256.28;10434933;28;20243;-66
2023/05/14 21:52:49;;;;;;;4.50;2.60;;;;;;;9.63;100.00;96254.78;10415810;28;20188;-66
2023/05/14 21:57:50;;;;;;;2.50;2.30;;;;;;;9.40;100.00;96250.19;10415082;28;20220;-66
2023/05/14 22:02:53;;;;;;;2.03;1.93;;;;;;;9.13;100.00;96253.03;10413064;28;20236;-67
2023/05/14 22:07:54;;;;;;;2.20;2.00;;;;;;;9.15;100.00;96241.47;10414154;28;20219;-67
2023/05/14 22:12:54;;;;;;;2.60;2.40;;;;;;;8.96;100.00;96246.94;10413932;28;20659;-67
2023/05/14 22:17:55;;;;;;;2.20;2.00;;;;;;;9.10;100.00;96238.53;10413737;28;20750;-67
2023/05/14 22:22:56;;;;;;;2.30;2.10;;;;;;;8.94;100.00;96234.03;10413504;28;20775;-66
2023/05/14 22:27:56;;;;;;;2.40;2.20;;;;;;;8.77;100.00;96233.16;10413176;28;20278;-67
2023/05/14 22:32:56;;;;;;;4.63;2.50;;;;;;;8.70;100.00;96237.41;10413129;28;20184;-67
2023/05/14 22:37:57;;;;;;;4.33;3.20;;;;;;;8.65;100.00;96232.66;10412738;28;20224;-67
2023/05/14 22:42:57;;;;;;;3.13;2.30;;;;;;;8.93;100.00;96229.81;10412774;28;20216;-67
2023/05/14 22:47:58;;;;;;;3.83;2.20;;;;;;;9.15;100.00;96220.56;10412172;28;20322;-67
2023/05/14 22:52:58;;;;;;;2.77;2.10;;;;;;;9.14;100.00;96211.06;10412071;28;20240;-66
2023/05/14 22:57:58;;;;;;;2.27;2.07;;;;;;;9.25;100.00;96209.97;10411968;28;20216;-67
2023/05/14 23:02:59;;;;;;;2.40;2.20;;;;;;;9.27;100.00;96192.34;10411596;28;20220;-66
2023/05/14 23:07:59;;;;;;;5.13;2.47;;;;;;;9.18;100.00;96178.44;10411999;28;20220;-66
2023/05/14 23:12:59;;;;;;;3.83;2.33;;;;;;;9.19;100.00;96169.63;10411571;28;20180;-66
2023/05/14 23:18:00;;;;;;;4.00;2.80;;;;;;;8.97;100.00;96168.41;10411652;28;20262;-66